Airfield :
LOGIN :

Register | Disclaimer

   EN    FR    IT 

 










Legend :    VFR   Marginal VFR   IFR   Intensive IFR   Very Intensive IFR
Visi :
Ceiling :
>= 8 km
>= 3000ft
5 to 8 km
1000 to 3000 ft
1500m to 5 km
500 to 1000 ft
800 to 1500m
200 to 500 ft
< 800m
< 200 ft
Symbols :   Thunderstorms  Fog  Heavy snow  Heavy precipitations  Wind > 20 kt
SIGMETs :     Misc.  Thunderstorms  Icing  Turbulence  Mountain Waves  Volcanic Ashes






- Airport Elevation : 202 ft
- IATA code : LGW


EGKK - London Gatwick

CURRENT METAR :
  • 200350Z 22013KT 6000 -RADZ BKN012 09/07 Q1012

EXPIRED METARs :
  • 200320Z 21012KT 8000 -RADZ BKN010 09/08 Q1012
  • 200250Z 21012KT 7000 -RADZ SCT011 BKN017 09/07 Q1013
  • 200220Z 21010KT 9999 BKN014 09/08 Q1013
  • 200150Z 21012KT 7000 -RADZ FEW009 BKN012 09/08 Q1013
  • 200120Z 21010KT 8000 -RADZ BKN009 09/08 Q1014

TAF AMD TAF EGKK
Valid from the 20 at 01:00 until the 21 at 06:00 UTC


200117Z 2001/2106 22013KT 9999 BKN016
TEMPO 2001/2007 22015G25KT 7000 -RADZ BKN008
PROB30
TEMPO 2001/2011 4000 RADZ
BECMG 2007/2010 21018G28KT
PROB40
TEMPO 2007/2011 BKN008
TEMPO 2011/2015 7000 RA BKN012
PROB40
TEMPO 2012/2015 24022G35KT 3000 +RA BKN008
BECMG 2013/2015 27013KT
PROB40
TEMPO 2015/2018 28018G30KT 6000 SHRA BKN014
BECMG 2018/2021 CAVOK



MET'MAP, your aeronautical weather chart ! - Copyright ORBIFLY December 2007 - Disclaimer

ORBIFLY MET'MAP TEAM :

Programming & Development : Alexandra Zaïnal
Concept & original design : Baudouin d'Aumeries
Assistance for programming : Marc-Olivier Méhu
Technical & hardware support : Manuel Goepfert

Contact : metmap@orbifly.com




SOURCES & CREDITS :

   NOAA